Scituate, MA

9:37 AM EST on February 25, 2017 (GMT -0500)
Peggotty Beach | | Change Station
Active Advisory: Dense Fog Advisory

Elev 26 ft 42.19 °N, 70.72 °W | Updated 3 seconds ago

Partly Cloudy
Partly Cloudy
50.7 °F
Feels Like 50.7 °F
N
9.1
Wind Variable Wind from ESE
Gusts 9.1 mph

Today
High -- | Low -- °F
--% Chance of Precip.
Yesterday
High -- | Low -- °F
Precip. -- in
Pressure 29.84 in
Visibility 10.0 miles
Clouds Clear
Dew Point 50 °F
Humidity 99%
Rainfall 0.00 in
Snow Depth Not available.
6:24 AM 5:28 PM
Waning Crescent, 1% visible
METAR KGHG 251415Z AUTO 17007KT 10SM CLR 16/13 A2984 RMK AO2
Pressure 29.84 in
Visibility 10.0 miles
Clouds Clear
Dew Point 50 °F
Humidity 99%
Rainfall 0.00 in
Snow Depth Not available.
6:24 AM 5:28 PM
Waning Crescent, 1% visible
METAR KGHG 251415Z AUTO 17007KT 10SM CLR 16/13 A2984 RMK AO2

Get Your Daily Forecast Email!

Thanks for signing up!

Be on the lookout for a verification email in your inbox.

You'll start receiving the daily forecast at 8 AM.

×

10-Day Weather Forecast

Almanac

Astronomy

Feb. 25, 2017 Rise Set
Actual Time
Civil Twilight
Nautical Twilight
Astronomical Twilight
Moon
Length of Visible Light
Length of Day
Tomorrow will be .
, % of the Moon is Illuminated

Today's Extremes

State Highs State Lows

Community

WunderPhotos

Upload Photos

1,962,540 photos uploaded!

WunderBlog® & News

Nearby

Air Quality

  Air Quality AQ Index Pollutant
Not available.

Snow Depth

Station Depth Elevation

Earthquake Activity

City Distance Mag. Time & Date
Minimum magnitude displayed is 2.5.

Coastal Water Temperatures

Place Temperature

Stations

Nearby Weather Stations

Station Location Temp. Windchill Dew Point Humidity Wind Precip. Elev Updated Type
                   

Watches & Warnings

Dense Fog Advisory
Issued: 6:41 AM EST Feb. 25, 2017 – National Weather Service

... Dense fog advisory in effect until 10 am EST this morning...

The National Weather Service in Taunton has issued a dense fog
advisory, which is in effect until 10 am EST this morning.

* Location... across coastal Plymouth County.

* Visibilities... one quarter mile or less at times.

* Timing... until 10 am this morning.

* Impacts... locally poor visibility in fog.

Precautionary/preparedness actions...

A dense fog advisory means visibilities will frequently be
reduced to less than one quarter mile, for at least 3 hours. If
driving, slow down, use your headlights, and leave plenty of
distance ahead of you.